sensor_id;sensor_type;location;lat;lon;timestamp;temperature;humidity
47765;DHT22;33529;49.242;8.670;2023-01-25T00:02:08;2.50;99.90
47765;DHT22;33529;49.242;8.670;2023-01-25T00:04:35;2.50;99.90
47765;DHT22;33529;49.242;8.670;2023-01-25T00:07:01;2.50;99.90
47765;DHT22;33529;49.242;8.670;2023-01-25T00:09:28;2.50;99.90
47765;DHT22;33529;49.242;8.670;2023-01-25T00:11:55;2.50;99.90
47765;DHT22;33529;49.242;8.670;2023-01-25T00:14:23;2.50;99.90
47765;DHT22;33529;49.242;8.670;2023-01-25T00:16:50;2.40;99.90
47765;DHT22;33529;49.242;8.670;2023-01-25T00:19:17;2.40;99.90
47765;DHT22;33529;49.242;8.670;2023-01-25T00:21:45;2.40;99.90
47765;DHT22;33529;49.242;8.670;2023-01-25T00:24:12;2.50;99.90
47765;DHT22;33529;49.242;8.670;2023-01-25T00:26:41;2.40;99.90
47765;DHT22;33529;49.242;8.670;2023-01-25T00:29:12;2.50;99.90
47765;DHT22;33529;49.242;8.670;2023-01-25T00:31:48;2.50;99.90
47765;DHT22;33529;49.242;8.670;2023-01-25T00:37:01;2.50;99.90
47765;DHT22;33529;49.242;8.670;2023-01-25T00:39:29;2.50;99.90
47765;DHT22;33529;49.242;8.670;2023-01-25T00:41:55;2.40;99.90
47765;DHT22;33529;49.242;8.670;2023-01-25T00:44:22;2.40;99.90
47765;DHT22;33529;49.242;8.670;2023-01-25T00:46:49;2.50;99.90
47765;DHT22;33529;49.242;8.670;2023-01-25T00:49:22;2.50;99.90
47765;DHT22;33529;49.242;8.670;2023-01-25T00:51:50;2.40;99.90
47765;DHT22;33529;49.242;8.670;2023-01-25T00:54:18;2.40;99.90
47765;DHT22;33529;49.242;8.670;2023-01-25T00:56:45;2.40;99.90
47765;DHT22;33529;49.242;8.670;2023-01-25T00:59:13;2.50;99.90
47765;DHT22;33529;49.242;8.670;2023-01-25T01:01:40;2.50;99.90
47765;DHT22;33529;49.242;8.670;2023-01-25T01:04:07;2.50;99.90
47765;DHT22;33529;49.242;8.670;2023-01-25T01:06:35;2.50;99.90
47765;DHT22;33529;49.242;8.670;2023-01-25T01:09:04;2.50;99.90
47765;DHT22;33529;49.242;8.670;2023-01-25T01:11:31;2.40;99.90
47765;DHT22;33529;49.242;8.670;2023-01-25T01:13:59;2.50;99.90
47765;DHT22;33529;49.242;8.670;2023-01-25T01:16:26;2.50;99.90
47765;DHT22;33529;49.242;8.670;2023-01-25T01:18:53;2.50;99.90
47765;DHT22;33529;49.242;8.670;2023-01-25T01:21:20;2.50;99.90
47765;DHT22;33529;49.242;8.670;2023-01-25T01:23:47;2.40;99.90
47765;DHT22;33529;49.242;8.670;2023-01-25T01:26:16;2.40;99.90
47765;DHT22;33529;49.242;8.670;2023-01-25T01:28:45;2.40;99.90
47765;DHT22;33529;49.242;8.670;2023-01-25T01:31:18;2.40;99.90
47765;DHT22;33529;49.242;8.670;2023-01-25T01:33:55;2.40;99.90
47765;DHT22;33529;49.242;8.670;2023-01-25T01:36:24;2.30;99.90
47765;DHT22;33529;49.242;8.670;2023-01-25T01:38:52;2.40;99.90
47765;DHT22;33529;49.242;8.670;2023-01-25T01:41:20;2.40;99.90
47765;DHT22;33529;49.242;8.670;2023-01-25T01:43:48;2.40;99.90
47765;DHT22;33529;49.242;8.670;2023-01-25T01:49:04;2.40;99.90
47765;DHT22;33529;49.242;8.670;2023-01-25T01:51:43;2.40;99.90
47765;DHT22;33529;49.242;8.670;2023-01-25T01:54:39;2.40;99.90
47765;DHT22;33529;49.242;8.670;2023-01-25T01:57:14;2.40;99.90
47765;DHT22;33529;49.242;8.670;2023-01-25T01:59:51;2.40;99.90
47765;DHT22;33529;49.242;8.670;2023-01-25T02:02:20;2.40;99.90
47765;DHT22;33529;49.242;8.670;2023-01-25T02:04:48;2.40;99.90
47765;DHT22;33529;49.242;8.670;2023-01-25T02:07:21;2.40;99.90
47765;DHT22;33529;49.242;8.670;2023-01-25T02:09:50;2.30;99.90
47765;DHT22;33529;49.242;8.670;2023-01-25T02:12:18;2.40;99.90
47765;DHT22;33529;49.242;8.670;2023-01-25T02:14:49;2.40;99.90
47765;DHT22;33529;49.242;8.670;2023-01-25T02:17:25;2.40;99.90
47765;DHT22;33529;49.242;8.670;2023-01-25T02:20:08;2.40;99.90
47765;DHT22;33529;49.242;8.670;2023-01-25T02:22:47;2.40;99.90
47765;DHT22;33529;49.242;8.670;2023-01-25T02:25:15;2.40;99.90
47765;DHT22;33529;49.242;8.670;2023-01-25T02:28:08;2.30;99.90
47765;DHT22;33529;49.242;8.670;2023-01-25T02:30:36;2.40;99.90
47765;DHT22;33529;49.242;8.670;2023-01-25T02:33:03;2.30;99.90
47765;DHT22;33529;49.242;8.670;2023-01-25T02:35:49;2.30;99.90
47765;DHT22;33529;49.242;8.670;2023-01-25T02:38:18;2.30;99.90
47765;DHT22;33529;49.242;8.670;2023-01-25T02:41:32;2.30;99.90
47765;DHT22;33529;49.242;8.670;2023-01-25T02:44:01;2.40;99.90
47765;DHT22;33529;49.242;8.670;2023-01-25T02:46:34;2.30;99.90
47765;DHT22;33529;49.242;8.670;2023-01-25T02:49:03;2.40;99.90
47765;DHT22;33529;49.242;8.670;2023-01-25T02:51:32;2.40;99.90
47765;DHT22;33529;49.242;8.670;2023-01-25T02:53:59;2.50;99.90
47765;DHT22;33529;49.242;8.670;2023-01-25T02:56:26;2.40;99.90
47765;DHT22;33529;49.242;8.670;2023-01-25T02:58:53;2.40;99.90
47765;DHT22;33529;49.242;8.670;2023-01-25T03:01:20;2.30;99.90
47765;DHT22;33529;49.242;8.670;2023-01-25T03:03:47;2.20;99.90
47765;DHT22;33529;49.242;8.670;2023-01-25T03:06:15;2.20;99.90
47765;DHT22;33529;49.242;8.670;2023-01-25T03:08:42;2.20;99.90
47765;DHT22;33529;49.242;8.670;2023-01-25T03:11:09;2.30;99.90
47765;DHT22;33529;49.242;8.670;2023-01-25T03:13:36;2.30;99.90
47765;DHT22;33529;49.242;8.670;2023-01-25T03:16:07;2.20;99.90
47765;DHT22;33529;49.242;8.670;2023-01-25T03:18:35;2.10;99.90
47765;DHT22;33529;49.242;8.670;2023-01-25T03:21:11;2.20;99.90
47765;DHT22;33529;49.242;8.670;2023-01-25T03:23:39;2.20;99.90
47765;DHT22;33529;49.242;8.670;2023-01-25T03:26:13;2.20;99.90
47765;DHT22;33529;49.242;8.670;2023-01-25T03:28:55;2.20;99.90
47765;DHT22;33529;49.242;8.670;2023-01-25T03:31:22;2.20;99.90
47765;DHT22;33529;49.242;8.670;2023-01-25T03:33:50;2.10;99.90
47765;DHT22;33529;49.242;8.670;2023-01-25T03:36:21;2.20;99.90
47765;DHT22;33529;49.242;8.670;2023-01-25T03:38:48;2.10;99.90
47765;DHT22;33529;49.242;8.670;2023-01-25T03:41:16;2.10;99.90
47765;DHT22;33529;49.242;8.670;2023-01-25T03:43:45;2.10;99.90
47765;DHT22;33529;49.242;8.670;2023-01-25T03:46:15;2.10;99.90
47765;DHT22;33529;49.242;8.670;2023-01-25T03:48:42;2.20;99.90
47765;DHT22;33529;49.242;8.670;2023-01-25T03:51:10;2.20;99.90
47765;DHT22;33529;49.242;8.670;2023-01-25T03:53:37;2.10;99.90
47765;DHT22;33529;49.242;8.670;2023-01-25T03:56:11;2.10;99.90
47765;DHT22;33529;49.242;8.670;2023-01-25T03:58:49;2.10;99.90
47765;DHT22;33529;49.242;8.670;2023-01-25T04:01:16;2.20;99.90
47765;DHT22;33529;49.242;8.670;2023-01-25T04:03:43;2.10;99.90
47765;DHT22;33529;49.242;8.670;2023-01-25T04:06:10;2.10;99.90
47765;DHT22;33529;49.242;8.670;2023-01-25T04:08:37;2.10;99.90
47765;DHT22;33529;49.242;8.670;2023-01-25T04:11:07;2.10;99.90
47765;DHT22;33529;49.242;8.670;2023-01-25T04:13:36;2.00;99.90
47765;DHT22;33529;49.242;8.670;2023-01-25T04:16:06;2.00;99.90
47765;DHT22;33529;49.242;8.670;2023-01-25T04:18:57;2.00;99.90
47765;DHT22;33529;49.242;8.670;2023-01-25T04:21:25;1.90;99.90
47765;DHT22;33529;49.242;8.670;2023-01-25T04:23:52;2.00;99.90
47765;DHT22;33529;49.242;8.670;2023-01-25T04:26:19;1.90;99.90
47765;DHT22;33529;49.242;8.670;2023-01-25T04:28:52;2.00;99.90
47765;DHT22;33529;49.242;8.670;2023-01-25T04:31:19;1.90;99.90
47765;DHT22;33529;49.242;8.670;2023-01-25T04:33:47;1.80;99.90
47765;DHT22;33529;49.242;8.670;2023-01-25T04:36:18;1.90;99.90
47765;DHT22;33529;49.242;8.670;2023-01-25T04:38:45;1.90;99.90
47765;DHT22;33529;49.242;8.670;2023-01-25T04:41:12;1.90;99.90
47765;DHT22;33529;49.242;8.670;2023-01-25T04:43:40;1.90;99.90
47765;DHT22;33529;49.242;8.670;2023-01-25T04:46:09;1.80;99.90
47765;DHT22;33529;49.242;8.670;2023-01-25T04:48:36;1.60;99.90
47765;DHT22;33529;49.242;8.670;2023-01-25T04:51:05;1.60;99.90
47765;DHT22;33529;49.242;8.670;2023-01-25T04:53:33;1.50;99.90
47765;DHT22;33529;49.242;8.670;2023-01-25T04:56:03;1.50;99.90
47765;DHT22;33529;49.242;8.670;2023-01-25T04:58:34;1.50;99.90
47765;DHT22;33529;49.242;8.670;2023-01-25T05:01:02;1.50;99.90
47765;DHT22;33529;49.242;8.670;2023-01-25T05:03:30;1.40;99.90
47765;DHT22;33529;49.242;8.670;2023-01-25T05:05:57;1.50;99.90
47765;DHT22;33529;49.242;8.670;2023-01-25T05:08:24;1.60;99.90
47765;DHT22;33529;49.242;8.670;2023-01-25T05:10:59;1.60;99.90
47765;DHT22;33529;49.242;8.670;2023-01-25T05:13:44;1.50;99.90
47765;DHT22;33529;49.242;8.670;2023-01-25T05:16:31;1.50;99.90
47765;DHT22;33529;49.242;8.670;2023-01-25T05:18:58;1.50;99.90
47765;DHT22;33529;49.242;8.670;2023-01-25T05:21:45;1.50;99.90
47765;DHT22;33529;49.242;8.670;2023-01-25T05:24:30;1.50;99.90
47765;DHT22;33529;49.242;8.670;2023-01-25T05:27:01;1.40;99.90
47765;DHT22;33529;49.242;8.670;2023-01-25T05:30:04;1.30;99.90
47765;DHT22;33529;49.242;8.670;2023-01-25T05:32:40;1.30;99.90
47765;DHT22;33529;49.242;8.670;2023-01-25T05:35:07;1.30;99.90
47765;DHT22;33529;49.242;8.670;2023-01-25T05:37:34;1.40;99.90
47765;DHT22;33529;49.242;8.670;2023-01-25T05:40:06;1.40;99.90
47765;DHT22;33529;49.242;8.670;2023-01-25T05:42:37;1.30;99.90
47765;DHT22;33529;49.242;8.670;2023-01-25T05:45:09;1.30;99.90
47765;DHT22;33529;49.242;8.670;2023-01-25T05:47:38;1.40;99.90
47765;DHT22;33529;49.242;8.670;2023-01-25T05:50:05;1.40;99.90
47765;DHT22;33529;49.242;8.670;2023-01-25T05:52:56;1.30;99.90
47765;DHT22;33529;49.242;8.670;2023-01-25T05:55:23;1.40;99.90
47765;DHT22;33529;49.242;8.670;2023-01-25T05:57:54;1.40;99.90
47765;DHT22;33529;49.242;8.670;2023-01-25T06:00:22;1.30;99.90
47765;DHT22;33529;49.242;8.670;2023-01-25T06:02:49;1.50;99.90
47765;DHT22;33529;49.242;8.670;2023-01-25T06:05:21;1.40;99.90
47765;DHT22;33529;49.242;8.670;2023-01-25T06:07:48;1.40;99.90
47765;DHT22;33529;49.242;8.670;2023-01-25T06:10:17;1.40;99.90
47765;DHT22;33529;49.242;8.670;2023-01-25T06:12:47;1.40;99.90
47765;DHT22;33529;49.242;8.670;2023-01-25T06:15:14;1.50;99.90
47765;DHT22;33529;49.242;8.670;2023-01-25T06:17:41;1.50;99.90
47765;DHT22;33529;49.242;8.670;2023-01-25T06:20:26;1.40;99.90
47765;DHT22;33529;49.242;8.670;2023-01-25T06:23:03;1.40;99.90
47765;DHT22;33529;49.242;8.670;2023-01-25T06:25:30;1.40;99.90
47765;DHT22;33529;49.242;8.670;2023-01-25T06:27:57;1.40;99.90
47765;DHT22;33529;49.242;8.670;2023-01-25T06:30:24;1.40;99.90
47765;DHT22;33529;49.242;8.670;2023-01-25T06:32:50;1.40;99.90
47765;DHT22;33529;49.242;8.670;2023-01-25T06:35:17;1.40;99.90
47765;DHT22;33529;49.242;8.670;2023-01-25T06:37:44;1.50;99.90
47765;DHT22;33529;49.242;8.670;2023-01-25T06:40:11;1.50;99.90
47765;DHT22;33529;49.242;8.670;2023-01-25T06:42:38;1.60;99.90
47765;DHT22;33529;49.242;8.670;2023-01-25T06:45:06;1.50;99.90
47765;DHT22;33529;49.242;8.670;2023-01-25T06:47:33;1.60;99.90
47765;DHT22;33529;49.242;8.670;2023-01-25T06:50:00;1.50;99.90
47765;DHT22;33529;49.242;8.670;2023-01-25T06:52:27;1.50;99.90
47765;DHT22;33529;49.242;8.670;2023-01-25T06:54:53;1.50;99.90
47765;DHT22;33529;49.242;8.670;2023-01-25T06:57:23;1.60;99.90
47765;DHT22;33529;49.242;8.670;2023-01-25T06:59:49;1.60;99.90
47765;DHT22;33529;49.242;8.670;2023-01-25T07:02:16;1.60;99.90
47765;DHT22;33529;49.242;8.670;2023-01-25T07:04:43;1.60;99.90
47765;DHT22;33529;49.242;8.670;2023-01-25T07:07:10;1.70;99.90
47765;DHT22;33529;49.242;8.670;2023-01-25T07:09:36;1.60;99.90
47765;DHT22;33529;49.242;8.670;2023-01-25T07:12:04;1.60;99.90
47765;DHT22;33529;49.242;8.670;2023-01-25T07:14:31;1.60;99.90
47765;DHT22;33529;49.242;8.670;2023-01-25T07:16:58;1.50;99.90
47765;DHT22;33529;49.242;8.670;2023-01-25T07:19:25;1.60;99.90
47765;DHT22;33529;49.242;8.670;2023-01-25T07:21:55;1.60;99.90
47765;DHT22;33529;49.242;8.670;2023-01-25T07:24:22;1.60;99.90
47765;DHT22;33529;49.242;8.670;2023-01-25T07:26:52;1.60;99.90
47765;DHT22;33529;49.242;8.670;2023-01-25T07:29:20;1.60;99.90
47765;DHT22;33529;49.242;8.670;2023-01-25T07:31:47;1.60;99.90
47765;DHT22;33529;49.242;8.670;2023-01-25T07:34:14;1.60;99.90
47765;DHT22;33529;49.242;8.670;2023-01-25T07:36:41;1.60;99.90
47765;DHT22;33529;49.242;8.670;2023-01-25T07:39:12;1.60;99.90
47765;DHT22;33529;49.242;8.670;2023-01-25T07:41:39;1.60;99.90
47765;DHT22;33529;49.242;8.670;2023-01-25T07:44:11;1.60;99.90
47765;DHT22;33529;49.242;8.670;2023-01-25T07:46:45;1.60;99.90
47765;DHT22;33529;49.242;8.670;2023-01-25T07:49:11;1.60;99.90
47765;DHT22;33529;49.242;8.670;2023-01-25T07:51:38;1.60;99.90
47765;DHT22;33529;49.242;8.670;2023-01-25T07:54:05;1.70;99.90
47765;DHT22;33529;49.242;8.670;2023-01-25T07:56:34;1.70;99.90
47765;DHT22;33529;49.242;8.670;2023-01-25T07:59:03;1.70;99.90
47765;DHT22;33529;49.242;8.670;2023-01-25T08:01:31;1.70;99.90
47765;DHT22;33529;49.242;8.670;2023-01-25T08:04:00;1.70;99.90
47765;DHT22;33529;49.242;8.670;2023-01-25T08:06:29;1.70;99.90
47765;DHT22;33529;49.242;8.670;2023-01-25T08:09:17;1.80;99.90
47765;DHT22;33529;49.242;8.670;2023-01-25T08:11:47;1.80;99.90
47765;DHT22;33529;49.242;8.670;2023-01-25T08:14:15;1.90;99.90
47765;DHT22;33529;49.242;8.670;2023-01-25T08:16:41;1.90;99.90
47765;DHT22;33529;49.242;8.670;2023-01-25T08:19:08;1.90;99.90
47765;DHT22;33529;49.242;8.670;2023-01-25T08:21:36;1.90;99.90
47765;DHT22;33529;49.242;8.670;2023-01-25T08:24:05;1.90;99.90
47765;DHT22;33529;49.242;8.670;2023-01-25T08:26:34;1.90;99.90
47765;DHT22;33529;49.242;8.670;2023-01-25T08:29:01;1.90;99.90
47765;DHT22;33529;49.242;8.670;2023-01-25T08:31:30;1.80;99.90
47765;DHT22;33529;49.242;8.670;2023-01-25T08:33:59;1.90;99.90
47765;DHT22;33529;49.242;8.670;2023-01-25T08:36:26;1.90;99.90
47765;DHT22;33529;49.242;8.670;2023-01-25T08:38:56;2.00;99.90
47765;DHT22;33529;49.242;8.670;2023-01-25T08:41:23;2.00;99.90
47765;DHT22;33529;49.242;8.670;2023-01-25T08:43:52;2.10;99.90
47765;DHT22;33529;49.242;8.670;2023-01-25T08:46:20;2.00;99.90
47765;DHT22;33529;49.242;8.670;2023-01-25T08:48:47;2.00;99.90
47765;DHT22;33529;49.242;8.670;2023-01-25T08:51:18;2.00;99.90
47765;DHT22;33529;49.242;8.670;2023-01-25T08:53:45;2.00;99.90
47765;DHT22;33529;49.242;8.670;2023-01-25T08:56:13;2.00;99.90
47765;DHT22;33529;49.242;8.670;2023-01-25T08:58:46;2.00;99.90
47765;DHT22;33529;49.242;8.670;2023-01-25T09:01:15;2.00;99.90
47765;DHT22;33529;49.242;8.670;2023-01-25T09:03:44;2.00;99.90
47765;DHT22;33529;49.242;8.670;2023-01-25T09:06:11;2.00;99.90
47765;DHT22;33529;49.242;8.670;2023-01-25T09:08:39;2.00;99.90
47765;DHT22;33529;49.242;8.670;2023-01-25T09:11:11;2.10;99.90
47765;DHT22;33529;49.242;8.670;2023-01-25T09:13:38;2.10;99.90
47765;DHT22;33529;49.242;8.670;2023-01-25T09:16:14;2.20;99.90
47765;DHT22;33529;49.242;8.670;2023-01-25T09:18:43;2.10;99.90
47765;DHT22;33529;49.242;8.670;2023-01-25T09:21:12;2.10;99.90
47765;DHT22;33529;49.242;8.670;2023-01-25T09:23:39;2.10;99.90
47765;DHT22;33529;49.242;8.670;2023-01-25T09:26:23;2.00;99.90
47765;DHT22;33529;49.242;8.670;2023-01-25T09:28:52;2.00;99.90
47765;DHT22;33529;49.242;8.670;2023-01-25T09:31:20;2.20;99.90
47765;DHT22;33529;49.242;8.670;2023-01-25T09:34:03;2.10;99.90
47765;DHT22;33529;49.242;8.670;2023-01-25T09:36:29;2.10;99.90
47765;DHT22;33529;49.242;8.670;2023-01-25T09:38:56;2.20;99.90
47765;DHT22;33529;49.242;8.670;2023-01-25T09:47:26;2.20;99.90
47765;DHT22;33529;49.242;8.670;2023-01-25T09:55:23;2.30;99.90
47765;DHT22;33529;49.242;8.670;2023-01-25T09:57:53;2.20;99.90
47765;DHT22;33529;49.242;8.670;2023-01-25T10:03:12;2.30;99.90
47765;DHT22;33529;49.242;8.670;2023-01-25T10:05:45;2.20;99.90
47765;DHT22;33529;49.242;8.670;2023-01-25T10:11:27;2.30;99.90
47765;DHT22;33529;49.242;8.670;2023-01-25T10:13:54;2.50;99.90
47765;DHT22;33529;49.242;8.670;2023-01-25T10:17:12;2.50;99.90
47765;DHT22;33529;49.242;8.670;2023-01-25T10:19:31;2.50;99.90
47765;DHT22;33529;49.242;8.670;2023-01-25T10:22:10;2.40;99.90
47765;DHT22;33529;49.242;8.670;2023-01-25T10:24:59;2.40;99.90
47765;DHT22;33529;49.242;8.670;2023-01-25T10:28:01;2.40;99.90
47765;DHT22;33529;49.242;8.670;2023-01-25T10:33:21;2.60;99.90
47765;DHT22;33529;49.242;8.670;2023-01-25T10:35:49;2.50;99.90
47765;DHT22;33529;49.242;8.670;2023-01-25T10:38:26;2.50;99.90
47765;DHT22;33529;49.242;8.670;2023-01-25T10:41:03;2.50;99.90
47765;DHT22;33529;49.242;8.670;2023-01-25T10:43:32;2.40;99.90
47765;DHT22;33529;49.242;8.670;2023-01-25T10:46:00;2.40;99.90
47765;DHT22;33529;49.242;8.670;2023-01-25T10:48:33;2.40;99.90
47765;DHT22;33529;49.242;8.670;2023-01-25T10:51:01;2.40;99.90
47765;DHT22;33529;49.242;8.670;2023-01-25T10:58:39;2.50;99.90
47765;DHT22;33529;49.242;8.670;2023-01-25T11:01:10;2.50;99.90
47765;DHT22;33529;49.242;8.670;2023-01-25T11:03:41;2.70;99.90
47765;DHT22;33529;49.242;8.670;2023-01-25T11:06:10;2.80;99.90
47765;DHT22;33529;49.242;8.670;2023-01-25T11:08:37;2.70;99.90
47765;DHT22;33529;49.242;8.670;2023-01-25T11:11:21;2.70;99.90
47765;DHT22;33529;49.242;8.670;2023-01-25T11:13:52;2.60;99.90
47765;DHT22;33529;49.242;8.670;2023-01-25T11:16:35;2.60;99.90
47765;DHT22;33529;49.242;8.670;2023-01-25T11:22:08;2.70;99.90
47765;DHT22;33529;49.242;8.670;2023-01-25T11:24:45;2.80;99.90
47765;DHT22;33529;49.242;8.670;2023-01-25T11:27:24;2.90;99.90
47765;DHT22;33529;49.242;8.670;2023-01-25T11:30:10;2.80;99.90
47765;DHT22;33529;49.242;8.670;2023-01-25T11:32:41;2.70;99.90
47765;DHT22;33529;49.242;8.670;2023-01-25T11:35:16;2.60;99.90
47765;DHT22;33529;49.242;8.670;2023-01-25T11:40:54;2.50;99.90
47765;DHT22;33529;49.242;8.670;2023-01-25T11:43:45;2.50;99.90
47765;DHT22;33529;49.242;8.670;2023-01-25T11:52:42;2.50;99.90
47765;DHT22;33529;49.242;8.670;2023-01-25T11:55:25;2.50;99.90
47765;DHT22;33529;49.242;8.670;2023-01-25T12:00:38;2.70;99.90
47765;DHT22;33529;49.242;8.670;2023-01-25T12:06:26;2.70;99.90
47765;DHT22;33529;49.242;8.670;2023-01-25T12:09:18;2.70;99.90
47765;DHT22;33529;49.242;8.670;2023-01-25T12:17:41;2.60;99.90
47765;DHT22;33529;49.242;8.670;2023-01-25T12:26:18;2.60;99.90
47765;DHT22;33529;49.242;8.670;2023-01-25T12:28:50;2.60;99.90
47765;DHT22;33529;49.242;8.670;2023-01-25T12:31:26;2.60;99.90
47765;DHT22;33529;49.242;8.670;2023-01-25T12:34:03;2.60;99.90
47765;DHT22;33529;49.242;8.670;2023-01-25T12:36:42;2.60;99.90
47765;DHT22;33529;49.242;8.670;2023-01-25T12:41:50;2.60;99.90
47765;DHT22;33529;49.242;8.670;2023-01-25T12:44:33;2.40;99.90
47765;DHT22;33529;49.242;8.670;2023-01-25T12:47:22;2.40;99.90
47765;DHT22;33529;49.242;8.670;2023-01-25T12:49:58;2.40;99.90
47765;DHT22;33529;49.242;8.670;2023-01-25T12:52:40;2.60;99.90
47765;DHT22;33529;49.242;8.670;2023-01-25T12:55:15;2.50;99.90
47765;DHT22;33529;49.242;8.670;2023-01-25T13:00:55;2.50;99.90
47765;DHT22;33529;49.242;8.670;2023-01-25T13:06:19;2.70;99.90
47765;DHT22;33529;49.242;8.670;2023-01-25T13:11:38;2.40;99.90
47765;DHT22;33529;49.242;8.670;2023-01-25T13:16:52;2.50;99.90
47765;DHT22;33529;49.242;8.670;2023-01-25T13:22:02;2.40;99.90
47765;DHT22;33529;49.242;8.670;2023-01-25T13:24:34;2.40;99.90
47765;DHT22;33529;49.242;8.670;2023-01-25T13:27:25;2.40;99.90
47765;DHT22;33529;49.242;8.670;2023-01-25T13:35:38;2.50;99.90
47765;DHT22;33529;49.242;8.670;2023-01-25T13:40:38;2.60;99.90
47765;DHT22;33529;49.242;8.670;2023-01-25T13:45:40;2.50;99.90
47765;DHT22;33529;49.242;8.670;2023-01-25T13:48:14;2.60;99.90
47765;DHT22;33529;49.242;8.670;2023-01-25T13:50:49;2.60;99.90
47765;DHT22;33529;49.242;8.670;2023-01-25T13:53:22;2.70;99.90
47765;DHT22;33529;49.242;8.670;2023-01-25T13:55:55;2.50;99.90
47765;DHT22;33529;49.242;8.670;2023-01-25T13:58:28;2.50;99.90
47765;DHT22;33529;49.242;8.670;2023-01-25T14:00:58;2.40;99.90
47765;DHT22;33529;49.242;8.670;2023-01-25T14:03:28;2.40;99.90
47765;DHT22;33529;49.242;8.670;2023-01-25T14:05:57;2.40;99.90
47765;DHT22;33529;49.242;8.670;2023-01-25T14:08:25;2.50;99.90
47765;DHT22;33529;49.242;8.670;2023-01-25T14:10:53;2.50;99.90
47765;DHT22;33529;49.242;8.670;2023-01-25T14:13:20;2.50;99.90
47765;DHT22;33529;49.242;8.670;2023-01-25T14:15:55;2.60;99.90
47765;DHT22;33529;49.242;8.670;2023-01-25T14:18:41;2.50;99.90
47765;DHT22;33529;49.242;8.670;2023-01-25T14:21:16;2.50;99.90
47765;DHT22;33529;49.242;8.670;2023-01-25T14:23:44;2.60;99.90
47765;DHT22;33529;49.242;8.670;2023-01-25T14:26:25;2.60;99.90
47765;DHT22;33529;49.242;8.670;2023-01-25T14:28:55;2.50;99.90
47765;DHT22;33529;49.242;8.670;2023-01-25T14:31:35;2.60;99.90
47765;DHT22;33529;49.242;8.670;2023-01-25T14:34:02;2.50;99.90
47765;DHT22;33529;49.242;8.670;2023-01-25T14:36:32;2.50;99.90
47765;DHT22;33529;49.242;8.670;2023-01-25T14:39:33;2.50;99.90
47765;DHT22;33529;49.242;8.670;2023-01-25T14:42:00;2.50;99.90
47765;DHT22;33529;49.242;8.670;2023-01-25T14:44:28;2.50;99.90
47765;DHT22;33529;49.242;8.670;2023-01-25T14:47:30;2.50;99.90
47765;DHT22;33529;49.242;8.670;2023-01-25T14:50:36;2.50;99.90
47765;DHT22;33529;49.242;8.670;2023-01-25T14:55:45;2.60;99.90
47765;DHT22;33529;49.242;8.670;2023-01-25T14:58:16;2.50;99.90
47765;DHT22;33529;49.242;8.670;2023-01-25T15:00:58;2.40;99.90
47765;DHT22;33529;49.242;8.670;2023-01-25T15:03:28;2.40;99.90
47765;DHT22;33529;49.242;8.670;2023-01-25T15:05:57;2.40;99.90
47765;DHT22;33529;49.242;8.670;2023-01-25T15:08:34;2.40;99.90
47765;DHT22;33529;49.242;8.670;2023-01-25T15:11:01;2.40;99.90
47765;DHT22;33529;49.242;8.670;2023-01-25T15:13:47;2.40;99.90
47765;DHT22;33529;49.242;8.670;2023-01-25T15:16:14;2.40;99.90
47765;DHT22;33529;49.242;8.670;2023-01-25T15:21:24;2.30;99.90
47765;DHT22;33529;49.242;8.670;2023-01-25T15:23:51;2.30;99.90
47765;DHT22;33529;49.242;8.670;2023-01-25T15:26:27;2.20;99.90
47765;DHT22;33529;49.242;8.670;2023-01-25T15:28:59;2.20;99.90
47765;DHT22;33529;49.242;8.670;2023-01-25T15:31:28;2.20;99.90
47765;DHT22;33529;49.242;8.670;2023-01-25T15:33:57;2.20;99.90
47765;DHT22;33529;49.242;8.670;2023-01-25T15:36:24;2.20;99.90
47765;DHT22;33529;49.242;8.670;2023-01-25T15:38:51;2.10;99.90
47765;DHT22;33529;49.242;8.670;2023-01-25T15:41:18;2.20;99.90
47765;DHT22;33529;49.242;8.670;2023-01-25T15:43:45;2.30;99.90
47765;DHT22;33529;49.242;8.670;2023-01-25T15:46:24;2.30;99.90
47765;DHT22;33529;49.242;8.670;2023-01-25T15:48:52;2.30;99.90
47765;DHT22;33529;49.242;8.670;2023-01-25T15:51:20;2.40;99.90
47765;DHT22;33529;49.242;8.670;2023-01-25T15:53:47;2.40;99.90
47765;DHT22;33529;49.242;8.670;2023-01-25T15:56:19;2.40;99.90
47765;DHT22;33529;49.242;8.670;2023-01-25T15:58:51;2.30;99.90
47765;DHT22;33529;49.242;8.670;2023-01-25T16:01:19;2.30;99.90
47765;DHT22;33529;49.242;8.670;2023-01-25T16:03:46;2.30;99.90
47765;DHT22;33529;49.242;8.670;2023-01-25T16:09:22;2.10;99.90
47765;DHT22;33529;49.242;8.670;2023-01-25T16:11:52;2.10;99.90
47765;DHT22;33529;49.242;8.670;2023-01-25T16:14:19;2.10;99.90
47765;DHT22;33529;49.242;8.670;2023-01-25T16:16:49;2.10;99.90
47765;DHT22;33529;49.242;8.670;2023-01-25T16:19:20;2.10;99.90
47765;DHT22;33529;49.242;8.670;2023-01-25T16:21:48;2.10;99.90
47765;DHT22;33529;49.242;8.670;2023-01-25T16:24:15;2.20;99.90
47765;DHT22;33529;49.242;8.670;2023-01-25T16:26:46;2.20;99.90
47765;DHT22;33529;49.242;8.670;2023-01-25T16:29:13;2.20;99.90
47765;DHT22;33529;49.242;8.670;2023-01-25T16:31:40;2.20;99.90
47765;DHT22;33529;49.242;8.670;2023-01-25T16:34:07;2.30;99.90
47765;DHT22;33529;49.242;8.670;2023-01-25T16:36:34;2.20;99.90
47765;DHT22;33529;49.242;8.670;2023-01-25T16:39:16;2.10;99.90
47765;DHT22;33529;49.242;8.670;2023-01-25T16:41:46;2.00;99.90
47765;DHT22;33529;49.242;8.670;2023-01-25T16:44:13;2.00;99.90
47765;DHT22;33529;49.242;8.670;2023-01-25T16:46:40;2.00;99.90
47765;DHT22;33529;49.242;8.670;2023-01-25T16:49:14;2.10;99.90
47765;DHT22;33529;49.242;8.670;2023-01-25T16:51:41;2.10;99.90
47765;DHT22;33529;49.242;8.670;2023-01-25T16:54:11;2.10;99.90
47765;DHT22;33529;49.242;8.670;2023-01-25T16:56:38;2.10;99.90
47765;DHT22;33529;49.242;8.670;2023-01-25T16:59:06;2.10;99.90
47765;DHT22;33529;49.242;8.670;2023-01-25T17:01:35;2.20;99.90
47765;DHT22;33529;49.242;8.670;2023-01-25T17:04:04;2.20;99.90
47765;DHT22;33529;49.242;8.670;2023-01-25T17:06:34;2.20;99.90
47765;DHT22;33529;49.242;8.670;2023-01-25T17:09:03;2.20;99.90
47765;DHT22;33529;49.242;8.670;2023-01-25T17:11:48;2.20;99.90
47765;DHT22;33529;49.242;8.670;2023-01-25T17:14:17;2.10;99.90
47765;DHT22;33529;49.242;8.670;2023-01-25T17:16:45;2.10;99.90
47765;DHT22;33529;49.242;8.670;2023-01-25T17:19:14;2.00;99.90
47765;DHT22;33529;49.242;8.670;2023-01-25T17:21:43;2.10;99.90
47765;DHT22;33529;49.242;8.670;2023-01-25T17:24:13;2.00;99.90
47765;DHT22;33529;49.242;8.670;2023-01-25T17:26:40;2.00;99.90
47765;DHT22;33529;49.242;8.670;2023-01-25T17:29:07;2.00;99.90
47765;DHT22;33529;49.242;8.670;2023-01-25T17:31:36;2.00;99.90
47765;DHT22;33529;49.242;8.670;2023-01-25T17:34:05;2.00;99.90
47765;DHT22;33529;49.242;8.670;2023-01-25T17:36:33;1.90;99.90
47765;DHT22;33529;49.242;8.670;2023-01-25T17:39:06;2.00;99.90
47765;DHT22;33529;49.242;8.670;2023-01-25T17:41:33;2.00;99.90
47765;DHT22;33529;49.242;8.670;2023-01-25T17:43:59;1.90;99.90
47765;DHT22;33529;49.242;8.670;2023-01-25T17:46:31;1.90;99.90
47765;DHT22;33529;49.242;8.670;2023-01-25T17:49:00;1.80;99.90